NCAR-RAP Real-Time Weather Data

Output produced by METARs form (26 May 2022  06:57 UTC)
found at http://weather.rap.ucar.edu/surface/
 
KHLN 260653Z AUTO 26005KT 10SM BKN080 13/06 A3001 RMK AO2 SLP158 T01280056 402390094
KHLN 260553Z AUTO 31007KT 10SM CLR 13/05 A3000 RMK AO2 SLP157 T01330050 10233 20133 51021
KHLN 260453Z AUTO 35003KT 10SM FEW090 14/04 A2999 RMK AO2 SLP156 T01440044
KHLN 260353Z AUTO 33006KT 10SM FEW095 16/04 A2996 RMK AO2 SLP144 T01610039
KHLN 260253Z 32009KT 10SM CLR 18/04 A2993 RMK AO2 SLP134 T01780039 50005
KHLN 260153Z 01007KT 10SM BKN100 19/06 A2994 RMK AO2 WSHFT 0040 SLP135 T01940061
KHLN 260100Z 36015G23KT 10SM BKN095 21/05 A2992 RMK AO2 WSHFT 0040 T02060050
KHLN 260053Z 35014KT 10SM OVC090 22/05 A2992 RMK AO2 PK WND 31027/0039 WSHFT 0036 SLP127 T02170050
KHLN 252353Z 28013G24KT 10SM FEW090 23/02 A2991 RMK AO2 SLP121 T02330017 10239 20161 56007
KHLN 252253Z 28017G25KT 10SM FEW095 24/02 A2992 RMK AO2 PK WND 30026/2242 SLP122 T02390017
KHLN 252153Z 26012G23KT 10SM OVC090 22/02 A2993 RMK AO2 SLP130 T02170022
KHLN 252053Z AUTO 26011KT 10SM SCT065 BKN100 21/03 A2994 RMK AO2 SLP131 T02110033 57014
KHLN 251953Z 26012G18KT 10SM FEW070 SCT085 BKN100 21/04 A2995 RMK AO2 SLP135 T02060039
KHLN 251853Z VRB04KT 10SM SCT080 OVC100 19/03 A2997 RMK AO2 SLP145 T01890033
KHLN 251753Z 33004KT 10SM FEW070 OVC100 16/02 A2998 RMK AO2 SLP152 T01610022 10167 20094 50001
KHLN 251653Z 36005KT 10SM OVC070 14/02 A2999 RMK AO2 SLP157 T01440022
KHLN 251553Z 00000KT 10SM OVC065 13/02 A2999 RMK AO2 SLP156 T01280022
KHLN 251453Z 00000KT 10SM OVC060 11/03 A2998 RMK AO2 SLP156 T01060028 50004
KHLN 251353Z 00000KT 10SM OVC070 10/02 A2999 RMK AO2 SLP157 T01000022
KHLN 251253Z 35003KT 10SM OVC100 10/02 A2997 RMK AO2 SLP149 T01000022
KHLN 251153Z 00000KT 10SM OVC100 11/01 A2997 RMK AO2 SLP145 T01060006 10133 20100 56004
KHLN 251053Z AUTO 00000KT 10SM BKN070 OVC090 11/01 A2997 RMK AO2 SLP146 T01060006
KHLN 250953Z AUTO 29005KT 10SM OVC110 11/01 A2998 RMK AO2 SLP149 T01060006
KHLN 250853Z AUTO 21003KT 10SM OVC100 12/00 A2998 RMK AO2 SLP150 T01220000 56007
KHLN 250753Z AUTO 25005KT 10SM OVC110 12/M01 A2999 RMK AO2 SLP152 T01221006
KHLN 250653Z AUTO 25005KT 10SM CLR 12/M01 A2999 RMK AO2 SLP156 T01171006 402000056
KHLN 250553Z AUTO 21004KT 10SM CLR 13/M01 A3000 RMK AO2 SLP159 T01331006 10194 20128 51009
KHLN 250453Z AUTO 24007KT 10SM CLR 13/M01 A3000 RMK AO2 SLP161 T01331011
KHLN 250353Z AUTO 27006KT 10SM CLR 13/M02 A2999 RMK AO2 SLP157 T01331017
KHLN 250253Z 30008KT 10SM CLR 15/M02 A2998 RMK AO2 SLP155 T01501022 56003
KHLN 250153Z 29010G19KT 10SM CLR 17/M03 A2998 RMK AO2 SLP160 T01671033
KHLN 250053Z 29015G20KT 10SM CLR 19/M03 A2998 RMK AO2 SLP153 T01891028
KHLN 242353Z 31012G21KT 10SM CLR 19/M03 A2999 RMK AO2 PK WND 26026/2309 SLP157 T01891028 10200 20150 56003
KHLN 242253Z AUTO 30012G20KT 10SM CLR 19/M03 A2999 RMK AO2 SLP158 T01891028
KHLN 242153Z 27017G25KT 10SM FEW080 19/M03 A2999 RMK AO2 SLP159 T01891033
KHLN 242053Z 28013G23KT 10SM BKN080 18/M03 A2999 RMK AO2 SLP160 T01781028 56007
KHLN 241953Z 24012KT 10SM FEW075 18/M03 A3000 RMK AO2 SLP159 T01831033
KHLN 241853Z 28012G17KT 10SM FEW090 17/M02 A3001 RMK AO2 SLP161 T01721022
KHLN 241753Z 27014G21KT 10SM BKN090 17/M01 A3002 RMK AO2 SLP166 T01671011 10167 20061 58002
KHLN 241653Z 28014KT 10SM SCT090 14/M01 A3003 RMK AO2 SLP171 T01441011
KHLN 241553Z 00000KT 10SM FEW095 13/00 A3003 RMK AO2 SLP172 T01330000
KHLN 241453Z 00000KT 10SM CLR 11/01 A3002 RMK AO2 SLP173 T01060006 51009
KHLN 241353Z 03003KT 10SM BKN085 07/00 A3002 RMK AO2 SLP176 T00670000
KHLN 241253Z 00000KT 10SM OVC080 07/01 A3001 RMK AO2 SLP168 T00720006
KHLN 241153Z 00000KT 10SM CLR 07/M01 A2999 RMK AO2 SLP163 T00721006 10122 20056 53001
KHLN 241053Z AUTO 00000KT 10SM FEW080 07/00 A2999 RMK AO2 SLP161 T00670000
KHLN 240953Z AUTO 00000KT 10SM OVC100 08/00 A2999 RMK AO2 SLP161 T00780000
KHLN 240853Z AUTO 31004KT 10SM OVC095 09/M01 A2999 RMK AO2 SLP159 T00891006 58006
KHLN 240753Z AUTO 00000KT 10SM SCT095 09/M01 A2999 RMK AO2 SLP162 T00891011